sensor_id;sensor_type;location;lat;lon;timestamp;pressure;altitude;pressure_sealevel;temperature;humidity
84878;BME280;75140;47.754;8.840;2023-12-29T00:01:12;97037.13;;;4.14;95.78
84878;BME280;75140;47.754;8.840;2023-12-29T00:03:38;97032.41;;;3.98;95.56
84878;BME280;75140;47.754;8.840;2023-12-29T00:06:03;97033.25;;;4.08;95.58
84878;BME280;75140;47.754;8.840;2023-12-29T00:08:29;97029.00;;;4.17;95.33
84878;BME280;75140;47.754;8.840;2023-12-29T00:10:55;97027.06;;;4.28;94.32
84878;BME280;75140;47.754;8.840;2023-12-29T00:13:20;97027.06;;;4.19;95.31
84878;BME280;75140;47.754;8.840;2023-12-29T00:15:51;97034.81;;;4.20;95.47
84878;BME280;75140;47.754;8.840;2023-12-29T00:18:17;97037.16;;;4.33;95.03
84878;BME280;75140;47.754;8.840;2023-12-29T00:20:43;97020.28;;;4.35;95.30
84878;BME280;75140;47.754;8.840;2023-12-29T00:23:08;97019.19;;;4.47;94.04
84878;BME280;75140;47.754;8.840;2023-12-29T00:25:37;97009.09;;;4.52;93.52
84878;BME280;75140;47.754;8.840;2023-12-29T00:28:03;97015.28;;;4.51;93.30
84878;BME280;75140;47.754;8.840;2023-12-29T00:30:28;97007.69;;;4.67;92.94
84878;BME280;75140;47.754;8.840;2023-12-29T00:32:57;97007.16;;;4.54;93.34
84878;BME280;75140;47.754;8.840;2023-12-29T00:35:23;96994.69;;;4.47;94.17
84878;BME280;75140;47.754;8.840;2023-12-29T00:37:50;96993.16;;;4.44;94.64
84878;BME280;75140;47.754;8.840;2023-12-29T00:40:15;96994.56;;;4.48;94.68
84878;BME280;75140;47.754;8.840;2023-12-29T00:42:40;97003.53;;;4.55;94.79
84878;BME280;75140;47.754;8.840;2023-12-29T00:45:06;97003.28;;;4.49;94.25
84878;BME280;75140;47.754;8.840;2023-12-29T00:47:32;97008.09;;;4.34;95.00
84878;BME280;75140;47.754;8.840;2023-12-29T00:49:57;97003.13;;;4.31;95.22
84878;BME280;75140;47.754;8.840;2023-12-29T00:52:22;96995.13;;;4.23;95.49
84878;BME280;75140;47.754;8.840;2023-12-29T00:54:48;96994.00;;;4.54;94.53
84878;BME280;75140;47.754;8.840;2023-12-29T00:57:13;96994.44;;;4.59;94.67
84878;BME280;75140;47.754;8.840;2023-12-29T00:59:39;96991.78;;;4.59;94.20
84878;BME280;75140;47.754;8.840;2023-12-29T01:02:05;96989.56;;;4.55;93.86
84878;BME280;75140;47.754;8.840;2023-12-29T01:04:30;96991.38;;;4.54;94.03
84878;BME280;75140;47.754;8.840;2023-12-29T01:06:56;96984.06;;;4.39;94.21
84878;BME280;75140;47.754;8.840;2023-12-29T01:09:21;96982.66;;;4.16;95.68
84878;BME280;75140;47.754;8.840;2023-12-29T01:11:47;96977.81;;;4.11;95.31
84878;BME280;75140;47.754;8.840;2023-12-29T01:14:12;96988.06;;;4.05;95.54
84878;BME280;75140;47.754;8.840;2023-12-29T01:16:38;96983.63;;;3.96;94.95
84878;BME280;75140;47.754;8.840;2023-12-29T01:19:03;96991.06;;;3.91;94.95
84878;BME280;75140;47.754;8.840;2023-12-29T01:21:29;96986.75;;;3.80;95.66
84878;BME280;75140;47.754;8.840;2023-12-29T01:23:59;96994.91;;;3.67;95.57
84878;BME280;75140;47.754;8.840;2023-12-29T01:26:24;96993.91;;;3.59;96.65
84878;BME280;75140;47.754;8.840;2023-12-29T01:28:49;97004.13;;;3.62;96.36
84878;BME280;75140;47.754;8.840;2023-12-29T01:31:15;96991.97;;;3.61;96.35
84878;BME280;75140;47.754;8.840;2023-12-29T01:33:40;96995.53;;;3.50;95.20
84878;BME280;75140;47.754;8.840;2023-12-29T01:36:06;96992.06;;;3.40;96.39
84878;BME280;75140;47.754;8.840;2023-12-29T01:38:31;96995.97;;;3.25;96.39
84878;BME280;75140;47.754;8.840;2023-12-29T01:40:56;96994.34;;;3.34;96.26
84878;BME280;75140;47.754;8.840;2023-12-29T01:43:22;97006.09;;;3.30;96.42
84878;BME280;75140;47.754;8.840;2023-12-29T01:45:47;97004.97;;;3.23;96.24
84878;BME280;75140;47.754;8.840;2023-12-29T01:48:13;97000.41;;;3.25;95.66
84878;BME280;75140;47.754;8.840;2023-12-29T01:50:38;97000.28;;;3.26;96.43
84878;BME280;75140;47.754;8.840;2023-12-29T01:53:05;97004.03;;;3.33;96.08
84878;BME280;75140;47.754;8.840;2023-12-29T01:55:32;96997.25;;;3.31;96.14
84878;BME280;75140;47.754;8.840;2023-12-29T01:57:58;96996.97;;;3.34;95.92
84878;BME280;75140;47.754;8.840;2023-12-29T02:00:23;96992.00;;;3.31;95.99
84878;BME280;75140;47.754;8.840;2023-12-29T02:02:49;96996.81;;;3.26;96.46
84878;BME280;75140;47.754;8.840;2023-12-29T02:05:15;96989.16;;;3.13;96.32
84878;BME280;75140;47.754;8.840;2023-12-29T02:07:42;97001.63;;;3.21;96.18
84878;BME280;75140;47.754;8.840;2023-12-29T02:10:08;97003.75;;;3.27;95.84
84878;BME280;75140;47.754;8.840;2023-12-29T02:12:35;97002.47;;;3.21;95.88
84878;BME280;75140;47.754;8.840;2023-12-29T02:15:05;96984.88;;;3.12;95.90
84878;BME280;75140;47.754;8.840;2023-12-29T02:17:39;96986.50;;;3.04;96.42
84878;BME280;75140;47.754;8.840;2023-12-29T02:20:07;96991.69;;;3.15;96.62
84878;BME280;75140;47.754;8.840;2023-12-29T02:22:33;96997.16;;;3.12;96.65
84878;BME280;75140;47.754;8.840;2023-12-29T02:24:58;96992.91;;;3.11;96.56
84878;BME280;75140;47.754;8.840;2023-12-29T02:27:36;96981.44;;;3.12;96.29
84878;BME280;75140;47.754;8.840;2023-12-29T02:30:11;96979.63;;;3.03;95.83
84878;BME280;75140;47.754;8.840;2023-12-29T02:32:42;96974.38;;;3.03;95.77
84878;BME280;75140;47.754;8.840;2023-12-29T02:35:14;96977.00;;;3.03;96.37
84878;BME280;75140;47.754;8.840;2023-12-29T02:37:40;96981.78;;;2.98;96.14
84878;BME280;75140;47.754;8.840;2023-12-29T02:40:07;96989.53;;;2.99;96.56
84878;BME280;75140;47.754;8.840;2023-12-29T02:42:33;96981.88;;;2.87;96.71
84878;BME280;75140;47.754;8.840;2023-12-29T02:44:59;96972.22;;;2.87;96.59
84878;BME280;75140;47.754;8.840;2023-12-29T02:47:24;96974.22;;;3.04;97.31
84878;BME280;75140;47.754;8.840;2023-12-29T02:49:50;96961.94;;;3.05;95.69
84878;BME280;75140;47.754;8.840;2023-12-29T02:52:16;96972.63;;;3.13;96.62
84878;BME280;75140;47.754;8.840;2023-12-29T02:54:41;96960.38;;;3.23;97.05
84878;BME280;75140;47.754;8.840;2023-12-29T02:57:06;96942.53;;;3.17;97.56
84878;BME280;75140;47.754;8.840;2023-12-29T02:59:32;96944.50;;;3.24;97.02
84878;BME280;75140;47.754;8.840;2023-12-29T03:01:57;96945.56;;;3.22;97.05
84878;BME280;75140;47.754;8.840;2023-12-29T03:04:22;96951.72;;;3.32;96.49
84878;BME280;75140;47.754;8.840;2023-12-29T03:06:48;96945.63;;;3.31;96.54
84878;BME280;75140;47.754;8.840;2023-12-29T03:09:13;96954.16;;;3.24;96.96
84878;BME280;75140;47.754;8.840;2023-12-29T03:11:38;96945.81;;;3.09;96.30
84878;BME280;75140;47.754;8.840;2023-12-29T03:14:04;96941.53;;;3.08;97.07
84878;BME280;75140;47.754;8.840;2023-12-29T03:16:29;96947.03;;;3.05;97.38
84878;BME280;75140;47.754;8.840;2023-12-29T03:18:54;96934.47;;;2.99;97.35
84878;BME280;75140;47.754;8.840;2023-12-29T03:21:20;96939.03;;;3.07;97.26
84878;BME280;75140;47.754;8.840;2023-12-29T03:23:46;96941.41;;;3.10;96.84
84878;BME280;75140;47.754;8.840;2023-12-29T03:26:11;96941.72;;;3.16;96.34
84878;BME280;75140;47.754;8.840;2023-12-29T03:28:36;96946.56;;;3.21;96.43
84878;BME280;75140;47.754;8.840;2023-12-29T03:31:02;96939.66;;;3.20;95.82
84878;BME280;75140;47.754;8.840;2023-12-29T03:33:27;96934.56;;;3.18;96.17
84878;BME280;75140;47.754;8.840;2023-12-29T03:35:53;96939.25;;;3.24;96.04
84878;BME280;75140;47.754;8.840;2023-12-29T03:38:18;96942.66;;;3.15;96.68
84878;BME280;75140;47.754;8.840;2023-12-29T03:40:43;96954.56;;;3.19;95.89
84878;BME280;75140;47.754;8.840;2023-12-29T03:43:09;96944.16;;;3.08;96.44
84878;BME280;75140;47.754;8.840;2023-12-29T03:45:34;96945.84;;;3.19;95.51
84878;BME280;75140;47.754;8.840;2023-12-29T03:47:59;96936.19;;;3.19;95.64
84878;BME280;75140;47.754;8.840;2023-12-29T03:50:25;96942.44;;;3.28;95.77
84878;BME280;75140;47.754;8.840;2023-12-29T03:52:50;96930.03;;;3.30;95.92
84878;BME280;75140;47.754;8.840;2023-12-29T03:55:15;96935.28;;;3.30;96.53
84878;BME280;75140;47.754;8.840;2023-12-29T03:57:44;96942.16;;;3.31;95.44
84878;BME280;75140;47.754;8.840;2023-12-29T04:00:13;96947.25;;;3.23;96.00
84878;BME280;75140;47.754;8.840;2023-12-29T04:02:39;96940.59;;;3.09;95.86
84878;BME280;75140;47.754;8.840;2023-12-29T04:05:07;96935.19;;;3.11;96.85
84878;BME280;75140;47.754;8.840;2023-12-29T04:07:32;96933.34;;;3.32;95.29
84878;BME280;75140;47.754;8.840;2023-12-29T04:09:58;96933.88;;;3.94;95.81
84878;BME280;75140;47.754;8.840;2023-12-29T04:12:23;96924.44;;;4.39;94.07
84878;BME280;75140;47.754;8.840;2023-12-29T04:14:48;96922.22;;;4.54;93.73
84878;BME280;75140;47.754;8.840;2023-12-29T04:17:14;96924.94;;;4.71;92.82
84878;BME280;75140;47.754;8.840;2023-12-29T04:19:40;96903.25;;;4.97;92.30
84878;BME280;75140;47.754;8.840;2023-12-29T04:22:08;96909.31;;;5.07;92.46
84878;BME280;75140;47.754;8.840;2023-12-29T04:24:34;96916.72;;;5.21;91.94
84878;BME280;75140;47.754;8.840;2023-12-29T04:26:59;96910.78;;;5.46;90.82
84878;BME280;75140;47.754;8.840;2023-12-29T04:29:25;96910.88;;;5.54;90.41
84878;BME280;75140;47.754;8.840;2023-12-29T04:31:50;96911.47;;;5.48;90.77
84878;BME280;75140;47.754;8.840;2023-12-29T04:34:15;96916.34;;;5.43;92.34
84878;BME280;75140;47.754;8.840;2023-12-29T04:36:41;96920.22;;;5.39;91.63
84878;BME280;75140;47.754;8.840;2023-12-29T04:39:06;96930.75;;;5.39;91.66
84878;BME280;75140;47.754;8.840;2023-12-29T04:41:34;96910.00;;;5.36;92.28
84878;BME280;75140;47.754;8.840;2023-12-29T04:44:00;96917.94;;;5.53;91.58
84878;BME280;75140;47.754;8.840;2023-12-29T04:46:25;96916.75;;;5.65;91.25
84878;BME280;75140;47.754;8.840;2023-12-29T04:48:50;96922.09;;;5.56;92.11
84878;BME280;75140;47.754;8.840;2023-12-29T04:51:16;96918.06;;;5.52;92.72
84878;BME280;75140;47.754;8.840;2023-12-29T04:53:41;96930.44;;;5.51;92.27
84878;BME280;75140;47.754;8.840;2023-12-29T04:56:06;96928.75;;;5.50;93.01
84878;BME280;75140;47.754;8.840;2023-12-29T04:58:32;96933.47;;;5.47;93.12
84878;BME280;75140;47.754;8.840;2023-12-29T05:00:57;96937.94;;;5.46;92.69
84878;BME280;75140;47.754;8.840;2023-12-29T05:03:22;96939.25;;;5.60;92.74
84878;BME280;75140;47.754;8.840;2023-12-29T05:05:48;96940.97;;;5.69;92.93
84878;BME280;75140;47.754;8.840;2023-12-29T05:08:13;96936.09;;;5.83;92.33
84878;BME280;75140;47.754;8.840;2023-12-29T05:10:39;96947.91;;;5.97;92.13
84878;BME280;75140;47.754;8.840;2023-12-29T05:13:04;96945.19;;;6.06;92.11
84878;BME280;75140;47.754;8.840;2023-12-29T05:15:29;96948.88;;;6.14;91.64
84878;BME280;75140;47.754;8.840;2023-12-29T05:17:55;96941.88;;;6.22;90.89
84878;BME280;75140;47.754;8.840;2023-12-29T05:20:20;96945.50;;;6.21;91.57
84878;BME280;75140;47.754;8.840;2023-12-29T05:22:45;96943.84;;;6.20;91.01
84878;BME280;75140;47.754;8.840;2023-12-29T05:25:11;96944.38;;;6.24;90.88
84878;BME280;75140;47.754;8.840;2023-12-29T05:27:36;96948.59;;;6.34;90.61
84878;BME280;75140;47.754;8.840;2023-12-29T05:30:02;96940.66;;;6.52;89.07
84878;BME280;75140;47.754;8.840;2023-12-29T05:32:28;96941.94;;;6.65;88.33
84878;BME280;75140;47.754;8.840;2023-12-29T05:34:53;96929.16;;;6.78;87.33
84878;BME280;75140;47.754;8.840;2023-12-29T05:37:18;96932.09;;;6.75;87.31
84878;BME280;75140;47.754;8.840;2023-12-29T05:39:44;96928.78;;;6.73;87.73
84878;BME280;75140;47.754;8.840;2023-12-29T05:42:09;96934.00;;;6.65;87.48
84878;BME280;75140;47.754;8.840;2023-12-29T05:44:38;96935.91;;;6.55;89.03
84878;BME280;75140;47.754;8.840;2023-12-29T05:47:04;96934.94;;;6.56;88.46
84878;BME280;75140;47.754;8.840;2023-12-29T05:49:30;96931.81;;;6.61;88.35
84878;BME280;75140;47.754;8.840;2023-12-29T05:51:57;96924.53;;;6.55;88.51
84878;BME280;75140;47.754;8.840;2023-12-29T05:54:22;96933.34;;;6.63;87.71
84878;BME280;75140;47.754;8.840;2023-12-29T05:56:48;96934.97;;;6.64;87.61
84878;BME280;75140;47.754;8.840;2023-12-29T05:59:13;96934.00;;;6.65;88.12
84878;BME280;75140;47.754;8.840;2023-12-29T06:01:39;96923.09;;;6.60;88.09
84878;BME280;75140;47.754;8.840;2023-12-29T06:04:04;96928.41;;;6.68;87.17
84878;BME280;75140;47.754;8.840;2023-12-29T06:06:29;96936.91;;;6.80;87.80
84878;BME280;75140;47.754;8.840;2023-12-29T06:08:55;96932.50;;;6.88;86.68
84878;BME280;75140;47.754;8.840;2023-12-29T06:11:20;96928.53;;;6.84;86.63
84878;BME280;75140;47.754;8.840;2023-12-29T06:13:46;96929.66;;;6.82;87.38
84878;BME280;75140;47.754;8.840;2023-12-29T06:16:21;96931.63;;;6.80;87.10
84878;BME280;75140;47.754;8.840;2023-12-29T06:18:47;96931.19;;;6.84;87.05
84878;BME280;75140;47.754;8.840;2023-12-29T06:21:12;96926.41;;;6.88;86.99
84878;BME280;75140;47.754;8.840;2023-12-29T06:23:38;96938.78;;;6.87;87.13
84878;BME280;75140;47.754;8.840;2023-12-29T06:26:03;96929.88;;;6.88;87.07
84878;BME280;75140;47.754;8.840;2023-12-29T06:28:29;96934.53;;;6.94;86.28
84878;BME280;75140;47.754;8.840;2023-12-29T06:30:54;96933.38;;;6.97;86.79
84878;BME280;75140;47.754;8.840;2023-12-29T06:33:20;96930.44;;;7.00;86.63
84878;BME280;75140;47.754;8.840;2023-12-29T06:35:48;96932.88;;;6.93;87.57
84878;BME280;75140;47.754;8.840;2023-12-29T06:38:13;96937.19;;;6.94;86.79
84878;BME280;75140;47.754;8.840;2023-12-29T06:40:39;96934.69;;;6.93;87.80
84878;BME280;75140;47.754;8.840;2023-12-29T06:43:05;96932.25;;;6.99;87.71
84878;BME280;75140;47.754;8.840;2023-12-29T06:45:30;96935.88;;;6.98;87.82
84878;BME280;75140;47.754;8.840;2023-12-29T06:47:55;96944.88;;;6.88;88.57
84878;BME280;75140;47.754;8.840;2023-12-29T06:50:22;96946.53;;;6.89;88.65
84878;BME280;75140;47.754;8.840;2023-12-29T06:52:47;96946.00;;;6.85;88.68
84878;BME280;75140;47.754;8.840;2023-12-29T06:55:13;96933.50;;;6.87;89.44
84878;BME280;75140;47.754;8.840;2023-12-29T06:57:38;96941.78;;;6.92;89.39
84878;BME280;75140;47.754;8.840;2023-12-29T07:00:04;96939.38;;;6.81;89.98
84878;BME280;75140;47.754;8.840;2023-12-29T07:02:30;96935.69;;;6.74;90.52
84878;BME280;75140;47.754;8.840;2023-12-29T07:04:55;96943.78;;;6.73;91.07
84878;BME280;75140;47.754;8.840;2023-12-29T07:07:21;96945.88;;;6.69;91.02
84878;BME280;75140;47.754;8.840;2023-12-29T07:09:46;96941.97;;;6.73;91.06
84878;BME280;75140;47.754;8.840;2023-12-29T07:12:12;96948.78;;;6.76;91.46
84878;BME280;75140;47.754;8.840;2023-12-29T07:14:37;96961.66;;;6.79;90.72
84878;BME280;75140;47.754;8.840;2023-12-29T07:17:03;96954.31;;;6.73;91.64
84878;BME280;75140;47.754;8.840;2023-12-29T07:19:28;96959.97;;;6.78;91.76
84878;BME280;75140;47.754;8.840;2023-12-29T07:22:01;96955.47;;;6.70;92.45
84878;BME280;75140;47.754;8.840;2023-12-29T07:24:27;96953.56;;;6.80;92.39
84878;BME280;75140;47.754;8.840;2023-12-29T07:26:52;96954.16;;;6.74;92.85
84878;BME280;75140;47.754;8.840;2023-12-29T07:29:18;96957.81;;;6.73;92.12
84878;BME280;75140;47.754;8.840;2023-12-29T07:31:43;96960.59;;;6.72;93.28
84878;BME280;75140;47.754;8.840;2023-12-29T07:34:11;96954.16;;;6.74;92.92
84878;BME280;75140;47.754;8.840;2023-12-29T07:36:40;96956.22;;;6.80;92.23
84878;BME280;75140;47.754;8.840;2023-12-29T07:39:23;96967.44;;;6.82;92.27
84878;BME280;75140;47.754;8.840;2023-12-29T07:41:49;96965.47;;;6.84;91.59
84878;BME280;75140;47.754;8.840;2023-12-29T07:44:16;96964.81;;;6.82;92.46
84878;BME280;75140;47.754;8.840;2023-12-29T07:46:43;96970.44;;;6.87;92.00
84878;BME280;75140;47.754;8.840;2023-12-29T07:49:17;96968.16;;;6.92;92.20
84878;BME280;75140;47.754;8.840;2023-12-29T07:51:46;96968.84;;;6.94;91.98
84878;BME280;75140;47.754;8.840;2023-12-29T07:54:15;96974.50;;;6.99;91.36
84878;BME280;75140;47.754;8.840;2023-12-29T07:56:43;96971.84;;;6.99;91.77
84878;BME280;75140;47.754;8.840;2023-12-29T07:59:16;96971.16;;;6.97;92.40
84878;BME280;75140;47.754;8.840;2023-12-29T08:01:42;96966.09;;;7.04;91.37
84878;BME280;75140;47.754;8.840;2023-12-29T08:04:07;96967.28;;;7.09;91.60
84878;BME280;75140;47.754;8.840;2023-12-29T08:06:32;96972.56;;;7.09;91.25
84878;BME280;75140;47.754;8.840;2023-12-29T08:08:58;96971.22;;;7.05;92.02
84878;BME280;75140;47.754;8.840;2023-12-29T08:11:23;96966.63;;;7.07;91.52
84878;BME280;75140;47.754;8.840;2023-12-29T08:13:48;96969.84;;;7.01;91.57
84878;BME280;75140;47.754;8.840;2023-12-29T08:16:15;96969.56;;;7.04;91.59
84878;BME280;75140;47.754;8.840;2023-12-29T08:18:42;96973.84;;;7.05;91.04
84878;BME280;75140;47.754;8.840;2023-12-29T08:21:08;96971.53;;;7.02;91.21
84878;BME280;75140;47.754;8.840;2023-12-29T08:23:33;96979.34;;;7.12;91.33
84878;BME280;75140;47.754;8.840;2023-12-29T08:25:58;96974.06;;;7.12;91.56
84878;BME280;75140;47.754;8.840;2023-12-29T08:28:24;96974.56;;;7.15;91.22
84878;BME280;75140;47.754;8.840;2023-12-29T08:30:50;96959.97;;;7.29;90.58
84878;BME280;75140;47.754;8.840;2023-12-29T08:33:15;96966.91;;;7.30;90.24
84878;BME280;75140;47.754;8.840;2023-12-29T08:35:41;96972.03;;;7.32;91.08
84878;BME280;75140;47.754;8.840;2023-12-29T08:38:07;96974.88;;;7.38;90.50
84878;BME280;75140;47.754;8.840;2023-12-29T08:40:32;96983.31;;;7.42;90.69
84878;BME280;75140;47.754;8.840;2023-12-29T08:42:57;96967.47;;;7.42;91.28
84878;BME280;75140;47.754;8.840;2023-12-29T08:45:23;96971.75;;;7.43;90.81
84878;BME280;75140;47.754;8.840;2023-12-29T08:47:48;96972.19;;;7.64;89.39
84878;BME280;75140;47.754;8.840;2023-12-29T08:50:14;96959.00;;;7.80;88.62
84878;BME280;75140;47.754;8.840;2023-12-29T08:52:40;96958.38;;;7.86;87.96
84878;BME280;75140;47.754;8.840;2023-12-29T08:55:05;96953.97;;;8.10;86.91
84878;BME280;75140;47.754;8.840;2023-12-29T08:57:31;96954.72;;;8.28;85.82
84878;BME280;75140;47.754;8.840;2023-12-29T08:59:57;96965.13;;;8.30;85.95
84878;BME280;75140;47.754;8.840;2023-12-29T09:02:22;96961.97;;;8.34;85.63
84878;BME280;75140;47.754;8.840;2023-12-29T09:04:47;96967.81;;;8.46;85.54
84878;BME280;75140;47.754;8.840;2023-12-29T09:07:13;96962.97;;;8.49;85.12
84878;BME280;75140;47.754;8.840;2023-12-29T09:09:38;96965.28;;;8.44;85.70
84878;BME280;75140;47.754;8.840;2023-12-29T09:12:04;96968.13;;;8.51;85.60
84878;BME280;75140;47.754;8.840;2023-12-29T09:14:30;96957.06;;;8.48;85.59
84878;BME280;75140;47.754;8.840;2023-12-29T09:16:57;96957.56;;;8.59;84.51
84878;BME280;75140;47.754;8.840;2023-12-29T09:19:23;96960.53;;;8.64;84.56
84878;BME280;75140;47.754;8.840;2023-12-29T09:21:48;96958.38;;;8.76;84.55
84878;BME280;75140;47.754;8.840;2023-12-29T09:24:13;96960.50;;;8.72;84.73
84878;BME280;75140;47.754;8.840;2023-12-29T09:26:39;96966.13;;;8.77;84.48
84878;BME280;75140;47.754;8.840;2023-12-29T09:29:04;96956.69;;;8.91;83.56
84878;BME280;75140;47.754;8.840;2023-12-29T09:31:29;96957.50;;;8.99;83.13
84878;BME280;75140;47.754;8.840;2023-12-29T09:33:55;96956.84;;;8.97;83.27
84878;BME280;75140;47.754;8.840;2023-12-29T09:36:22;96960.00;;;8.93;83.34
84878;BME280;75140;47.754;8.840;2023-12-29T09:38:47;96965.81;;;8.96;83.43
84878;BME280;75140;47.754;8.840;2023-12-29T09:41:14;96970.75;;;8.99;83.27
84878;BME280;75140;47.754;8.840;2023-12-29T09:43:40;96971.91;;;9.05;83.26
84878;BME280;75140;47.754;8.840;2023-12-29T09:46:08;96967.44;;;9.05;82.90
84878;BME280;75140;47.754;8.840;2023-12-29T09:48:34;96960.16;;;8.99;83.06
84878;BME280;75140;47.754;8.840;2023-12-29T09:51:03;96972.72;;;9.13;82.07
84878;BME280;75140;47.754;8.840;2023-12-29T09:53:30;96971.72;;;9.14;82.65
84878;BME280;75140;47.754;8.840;2023-12-29T09:55:57;96961.97;;;9.15;82.71
84878;BME280;75140;47.754;8.840;2023-12-29T09:58:25;96962.78;;;9.23;82.15
84878;BME280;75140;47.754;8.840;2023-12-29T10:00:51;96958.13;;;9.25;82.10
84878;BME280;75140;47.754;8.840;2023-12-29T10:03:17;96964.88;;;9.44;81.98
84878;BME280;75140;47.754;8.840;2023-12-29T10:05:44;96949.97;;;9.35;81.90
84878;BME280;75140;47.754;8.840;2023-12-29T10:08:14;96964.25;;;9.34;82.29
84878;BME280;75140;47.754;8.840;2023-12-29T10:10:42;96954.97;;;9.38;81.87
84878;BME280;75140;47.754;8.840;2023-12-29T10:13:09;96962.72;;;9.47;81.46
84878;BME280;75140;47.754;8.840;2023-12-29T10:16:04;96949.41;;;9.63;81.14
84878;BME280;75140;47.754;8.840;2023-12-29T10:18:39;96956.94;;;9.83;80.04
84878;BME280;75140;47.754;8.840;2023-12-29T10:23:58;96948.28;;;9.89;79.81
84878;BME280;75140;47.754;8.840;2023-12-29T10:26:27;96949.16;;;9.81;79.94
84878;BME280;75140;47.754;8.840;2023-12-29T10:28:52;96932.69;;;9.94;79.64
84878;BME280;75140;47.754;8.840;2023-12-29T10:31:18;96932.03;;;9.92;80.00
84878;BME280;75140;47.754;8.840;2023-12-29T10:33:43;96929.16;;;10.01;79.82
84878;BME280;75140;47.754;8.840;2023-12-29T10:36:09;96921.06;;;9.95;79.18
84878;BME280;75140;47.754;8.840;2023-12-29T10:38:39;96919.78;;;10.44;77.86
84878;BME280;75140;47.754;8.840;2023-12-29T10:41:11;96913.00;;;10.64;77.24
84878;BME280;75140;47.754;8.840;2023-12-29T10:43:37;96908.81;;;10.47;77.78
84878;BME280;75140;47.754;8.840;2023-12-29T10:46:07;96906.41;;;10.37;77.65
84878;BME280;75140;47.754;8.840;2023-12-29T10:48:33;96904.66;;;10.30;78.13
84878;BME280;75140;47.754;8.840;2023-12-29T10:50:59;96894.38;;;10.27;78.35
84878;BME280;75140;47.754;8.840;2023-12-29T10:53:26;96896.13;;;10.12;79.00
84878;BME280;75140;47.754;8.840;2023-12-29T10:55:52;96891.84;;;10.11;78.70
84878;BME280;75140;47.754;8.840;2023-12-29T10:58:17;96890.16;;;10.10;79.05
84878;BME280;75140;47.754;8.840;2023-12-29T11:00:44;96886.09;;;10.22;78.50
84878;BME280;75140;47.754;8.840;2023-12-29T11:03:15;96897.56;;;10.45;78.32
84878;BME280;75140;47.754;8.840;2023-12-29T11:05:41;96890.56;;;10.66;76.60
84878;BME280;75140;47.754;8.840;2023-12-29T11:08:20;96887.81;;;10.60;76.97
84878;BME280;75140;47.754;8.840;2023-12-29T11:10:49;96896.22;;;11.01;75.63
84878;BME280;75140;47.754;8.840;2023-12-29T11:13:15;96883.66;;;10.95;75.02
84878;BME280;75140;47.754;8.840;2023-12-29T11:15:43;96867.41;;;10.75;75.82
84878;BME280;75140;47.754;8.840;2023-12-29T11:18:13;96889.06;;;11.01;74.23
84878;BME280;75140;47.754;8.840;2023-12-29T11:20:39;96883.69;;;12.03;71.03
84878;BME280;75140;47.754;8.840;2023-12-29T11:23:06;96876.78;;;11.58;71.42
84878;BME280;75140;47.754;8.840;2023-12-29T11:25:33;96869.56;;;11.23;72.99
84878;BME280;75140;47.754;8.840;2023-12-29T11:27:59;96855.91;;;10.97;73.48
84878;BME280;75140;47.754;8.840;2023-12-29T11:30:26;96865.88;;;10.95;73.84
84878;BME280;75140;47.754;8.840;2023-12-29T11:35:25;96867.50;;;10.67;75.15
84878;BME280;75140;47.754;8.840;2023-12-29T11:38:24;96869.28;;;10.89;74.79
84878;BME280;75140;47.754;8.840;2023-12-29T11:43:26;96861.81;;;10.70;74.77
84878;BME280;75140;47.754;8.840;2023-12-29T11:45:52;96850.84;;;10.73;75.14
84878;BME280;75140;47.754;8.840;2023-12-29T11:51:35;96839.47;;;10.64;75.63
84878;BME280;75140;47.754;8.840;2023-12-29T11:54:02;96851.47;;;10.75;75.03
84878;BME280;75140;47.754;8.840;2023-12-29T11:56:39;96842.25;;;10.85;74.58
84878;BME280;75140;47.754;8.840;2023-12-29T11:59:24;96830.53;;;10.80;74.41
84878;BME280;75140;47.754;8.840;2023-12-29T12:01:54;96831.72;;;10.92;74.74
84878;BME280;75140;47.754;8.840;2023-12-29T12:04:41;96828.22;;;10.77;75.40
84878;BME280;75140;47.754;8.840;2023-12-29T12:07:17;96830.59;;;10.72;75.31
84878;BME280;75140;47.754;8.840;2023-12-29T12:12:56;96830.25;;;10.75;75.69
84878;BME280;75140;47.754;8.840;2023-12-29T12:17:55;96830.97;;;10.69;75.20
84878;BME280;75140;47.754;8.840;2023-12-29T12:20:23;96828.31;;;10.69;75.86
84878;BME280;75140;47.754;8.840;2023-12-29T12:22:50;96818.03;;;10.66;75.81
84878;BME280;75140;47.754;8.840;2023-12-29T12:25:21;96822.56;;;10.65;75.20
84878;BME280;75140;47.754;8.840;2023-12-29T12:27:47;96823.00;;;10.69;75.52
84878;BME280;75140;47.754;8.840;2023-12-29T12:30:18;96808.72;;;10.70;76.00
84878;BME280;75140;47.754;8.840;2023-12-29T12:32:44;96819.16;;;10.71;75.39
84878;BME280;75140;47.754;8.840;2023-12-29T12:35:16;96809.84;;;10.75;75.50
84878;BME280;75140;47.754;8.840;2023-12-29T12:37:41;96817.34;;;11.01;75.05
84878;BME280;75140;47.754;8.840;2023-12-29T12:40:07;96814.75;;;10.93;75.14
84878;BME280;75140;47.754;8.840;2023-12-29T12:42:38;96812.84;;;11.02;74.37
84878;BME280;75140;47.754;8.840;2023-12-29T12:45:13;96817.63;;;11.06;74.23
84878;BME280;75140;47.754;8.840;2023-12-29T12:47:46;96812.03;;;11.01;74.42
84878;BME280;75140;47.754;8.840;2023-12-29T12:50:15;96807.38;;;11.03;74.15
84878;BME280;75140;47.754;8.840;2023-12-29T12:52:41;96803.88;;;11.03;73.61
84878;BME280;75140;47.754;8.840;2023-12-29T12:55:07;96796.16;;;10.93;74.49
84878;BME280;75140;47.754;8.840;2023-12-29T12:57:33;96798.47;;;11.11;74.42
84878;BME280;75140;47.754;8.840;2023-12-29T13:00:00;96787.47;;;11.14;73.84
84878;BME280;75140;47.754;8.840;2023-12-29T13:02:27;96792.97;;;11.12;73.48
84878;BME280;75140;47.754;8.840;2023-12-29T13:04:54;96788.28;;;11.14;73.60
84878;BME280;75140;47.754;8.840;2023-12-29T13:07:20;96787.66;;;11.12;73.51
84878;BME280;75140;47.754;8.840;2023-12-29T13:09:45;96796.91;;;11.16;74.00
84878;BME280;75140;47.754;8.840;2023-12-29T13:12:14;96797.63;;;11.10;74.15
84878;BME280;75140;47.754;8.840;2023-12-29T13:14:41;96798.91;;;11.14;73.64
84878;BME280;75140;47.754;8.840;2023-12-29T13:17:08;96785.38;;;11.09;73.67
84878;BME280;75140;47.754;8.840;2023-12-29T13:19:36;96789.50;;;11.12;73.96
84878;BME280;75140;47.754;8.840;2023-12-29T13:22:02;96785.94;;;11.05;73.80
84878;BME280;75140;47.754;8.840;2023-12-29T13:24:31;96788.22;;;11.08;74.19